Time;durP1;ratioP1;P1;durP2;ratioP2;P2;SDS_P1;SDS_P2;PMS_P1;PMS_P2;Temp;Humidity;BMP_temperature;BMP_pressure;BME280_temperature;BME280_humidity;BME280_pressure;Samples;Min_cycle;Max_cycle;Signal;HPM_P1;HPM_P2
2021/06/02 00:02:01;;;;;;;8.60;3.85;;;12.60;28.00;;;;;;4938558;29;20028;-92
2021/06/02 00:04:32;;;;;;;8.15;4.00;;;12.40;28.00;;;;;;4939117;29;20027;-92
2021/06/02 00:07:00;;;;;;;8.60;4.25;;;12.40;28.20;;;;;;4938984;29;20468;-92
2021/06/02 00:09:27;;;;;;;9.18;4.38;;;12.40;28.70;;;;;;4938910;29;20035;-95
2021/06/02 00:11:56;;;;;;;8.98;4.72;;;12.30;28.80;;;;;;4926792;29;20028;-92
2021/06/02 00:14:23;;;;;;;8.20;4.30;;;12.30;28.40;;;;;;4942793;29;20435;-93
2021/06/02 00:16:50;;;;;;;8.75;4.28;;;12.20;28.50;;;;;;4942482;29;20023;-94
2021/06/02 00:19:16;;;;;;;9.10;4.25;;;12.20;28.70;;;;;;4927108;29;20091;-94
2021/06/02 00:21:43;;;;;;;9.40;3.83;;;12.10;28.70;;;;;;4942713;29;20042;-92
2021/06/02 00:24:09;;;;;;;9.27;3.90;;;12.10;28.80;;;;;;4942394;29;20398;-91
2021/06/02 00:26:35;;;;;;;8.65;4.18;;;12.10;28.90;;;;;;4926571;29;20097;-91
2021/06/02 00:29:03;;;;;;;9.07;4.30;;;12.00;29.00;;;;;;4942410;29;20506;-92
2021/06/02 00:31:31;;;;;;;7.43;3.70;;;12.00;29.10;;;;;;4944826;29;20031;-92
2021/06/02 00:34:03;;;;;;;9.77;3.72;;;11.90;29.00;;;;;;4932741;29;20028;-92
2021/06/02 00:36:29;;;;;;;9.35;4.43;;;11.70;29.00;;;;;;4942993;29;20019;-90
2021/06/02 00:38:55;;;;;;;7.82;3.70;;;11.70;29.20;;;;;;4942008;29;20039;-91
2021/06/02 00:41:22;;;;;;;9.70;4.20;;;11.70;29.30;;;;;;4926026;29;20498;-91
2021/06/02 00:43:48;;;;;;;8.55;4.20;;;11.70;29.50;;;;;;4926162;29;20035;-91
2021/06/02 00:46:15;;;;;;;8.02;3.95;;;11.70;29.60;;;;;;4941709;29;20031;-91
2021/06/02 00:48:42;;;;;;;9.13;4.20;;;11.60;29.60;;;;;;4926072;29;20126;-91
2021/06/02 00:51:08;;;;;;;8.45;4.03;;;11.60;29.80;;;;;;4941967;29;20019;-89
2021/06/02 00:53:36;;;;;;;9.57;4.05;;;11.50;29.80;;;;;;4958972;28;20077;-89
2021/06/02 00:56:04;;;;;;;8.98;4.07;;;11.50;29.80;;;;;;4941961;29;20027;-90
2021/06/02 00:58:36;;;;;;;8.45;4.13;;;11.50;30.00;;;;;;4936460;29;20028;-90
2021/06/02 01:01:02;;;;;;;8.50;3.95;;;11.40;30.00;;;;;;4922679;29;20031;-90
2021/06/02 01:03:29;;;;;;;8.82;4.13;;;11.40;30.50;;;;;;4922157;29;20027;-90
2021/06/02 01:05:56;;;;;;;7.70;4.07;;;11.30;30.00;;;;;;4922354;29;20180;-90
2021/06/02 01:08:22;;;;;;;9.48;4.10;;;11.30;30.20;;;;;;4906692;29;20032;-90
2021/06/02 01:10:52;;;;;;;8.73;3.88;;;11.30;30.30;;;;;;4906935;29;20480;-95
2021/06/02 01:13:21;;;;;;;9.02;4.20;;;11.30;30.50;;;;;;4923130;29;20054;-95
2021/06/02 01:15:50;;;;;;;9.32;4.40;;;11.30;30.70;;;;;;4907010;29;20032;-94
2021/06/02 01:18:18;;;;;;;8.10;3.92;;;11.20;30.60;;;;;;4922406;29;20039;-94
2021/06/02 01:20:44;;;;;;;8.20;4.20;;;11.20;30.70;;;;;;4922759;29;20038;-93
2021/06/02 01:23:11;;;;;;;9.77;4.30;;;11.20;30.60;;;;;;4922251;29;20383;-92
2021/06/02 01:25:40;;;;;;;9.85;4.63;;;11.10;30.80;;;;;;4906798;29;20064;-92
2021/06/02 01:28:06;;;;;;;9.98;4.93;;;11.00;31.00;;;;;;4906111;29;20131;-91
2021/06/02 01:30:34;;;;;;;9.25;4.43;;;11.10;31.10;;;;;;4922176;29;20059;-91
2021/06/02 01:33:03;;;;;;;8.65;4.57;;;11.00;31.20;;;;;;4921996;29;20114;-91
2021/06/02 01:35:54;;;;;;;9.95;4.30;;;10.90;31.40;;;;;;4922175;29;20082;-92
2021/06/02 01:38:58;;;;;;;8.57;4.10;;;10.90;31.50;;;;;;4921743;29;20399;-93
2021/06/02 01:41:52;;;;;;;9.10;4.28;;;10.90;31.80;;;;;;4922048;29;20039;-93
2021/06/02 01:44:48;;;;;;;10.10;4.50;;;10.80;32.20;;;;;;4922085;29;20045;-90
2021/06/02 01:47:53;;;;;;;9.32;4.63;;;10.80;31.90;;;;;;4921846;29;20078;-91
2021/06/02 01:50:39;;;;;;;8.88;4.47;;;10.80;31.80;;;;;;4921427;29;20502;-90
2021/06/02 01:53:41;;;;;;;8.68;4.20;;;10.70;31.90;;;;;;4921198;29;20047;-90
2021/06/02 01:56:42;;;;;;;9.02;4.72;;;10.70;32.10;;;;;;4921343;29;20028;-90
2021/06/02 01:59:29;;;;;;;9.13;4.18;;;10.60;31.90;;;;;;4846418;29;20044;-92
2021/06/02 02:01:54;;;;;;;9.90;4.38;;;10.60;33.00;;;;;;4916620;29;20391;-93
2021/06/02 02:04:50;;;;;;;11.18;4.40;;;10.50;32.00;;;;;;4921738;29;20031;-93
2021/06/02 02:07:31;;;;;;;9.18;4.50;;;10.50;32.40;;;;;;4921973;29;20043;-95
2021/06/02 02:10:20;;;;;;;9.95;4.15;;;10.40;32.40;;;;;;4921585;29;20028;-92
2021/06/02 02:13:08;;;;;;;8.63;4.40;;;10.40;32.40;;;;;;4921516;29;20032;-91
2021/06/02 02:15:46;;;;;;;9.15;4.40;;;10.40;32.60;;;;;;4921252;29;20024;-93
2021/06/02 02:18:42;;;;;;;8.60;4.40;;;10.40;32.50;;;;;;4921017;29;20050;-91
2021/06/02 02:21:41;;;;;;;11.70;4.35;;;10.40;32.90;;;;;;4919520;29;20035;-91
2021/06/02 02:24:10;;;;;;;8.43;4.15;;;10.40;32.90;;;;;;4921368;29;20024;-91
2021/06/02 02:26:43;;;;;;;8.55;4.57;;;10.40;32.80;;;;;;4921366;29;20039;-93
2021/06/02 02:29:39;;;;;;;9.98;5.07;;;10.30;32.80;;;;;;4921347;29;20024;-93
2021/06/02 02:32:44;;;;;;;8.73;4.50;;;10.20;33.10;;;;;;4921463;29;20027;-92
2021/06/02 02:35:46;;;;;;;10.13;4.32;;;10.20;33.20;;;;;;4920692;29;20028;-92
2021/06/02 02:38:40;;;;;;;9.18;4.80;;;10.10;33.20;;;;;;4921039;29;20028;-93
2021/06/02 02:41:13;;;;;;;9.77;4.97;;;10.10;33.30;;;;;;4921109;29;20074;-93
2021/06/02 02:43:55;;;;;;;9.50;5.05;;;10.10;33.20;;;;;;4921610;29;20024;-92
2021/06/02 02:46:35;;;;;;;9.57;4.72;;;10.10;33.70;;;;;;4921334;29;20024;-94
2021/06/02 02:49:46;;;;;;;11.88;5.47;;;10.10;33.60;;;;;;4921022;29;20034;-93
2021/06/02 02:52:38;;;;;;;13.10;5.43;;;10.00;33.80;;;;;;4905103;29;20480;-92
2021/06/02 02:55:18;;;;;;;13.48;5.25;;;10.00;33.90;;;;;;4901860;29;20044;-92
2021/06/02 02:57:59;;;;;;;9.40;5.00;;;9.90;33.80;;;;;;4901964;29;20107;-91
2021/06/02 03:00:42;;;;;;;9.77;5.38;;;9.90;34.00;;;;;;4882831;29;20123;-89
2021/06/02 03:03:33;;;;;;;11.88;5.15;;;9.90;34.20;;;;;;4898982;29;20465;-89
2021/06/02 03:06:08;;;;;;;11.20;5.35;;;9.80;34.20;;;;;;4882579;29;20039;-91
2021/06/02 03:08:49;;;;;;;9.13;5.00;;;9.90;34.20;;;;;;4882930;29;20053;-91
2021/06/02 03:11:23;;;;;;;12.07;5.47;;;9.80;34.10;;;;;;4882983;29;20035;-91
2021/06/02 03:14:14;;;;;;;11.80;5.55;;;9.80;34.30;;;;;;4888872;29;20020;-91
2021/06/02 03:16:43;;;;;;;12.30;5.78;;;9.70;34.50;;;;;;4885206;29;20111;-91
2021/06/02 03:19:13;;;;;;;12.60;5.88;;;9.70;34.40;;;;;;4882552;29;20036;-92
2021/06/02 03:22:01;;;;;;;11.45;5.82;;;9.70;34.50;;;;;;4883955;29;20028;-95
2021/06/02 03:25:04;;;;;;;12.80;5.88;;;9.70;34.50;;;;;;4890106;29;20036;-93
2021/06/02 03:27:43;;;;;;;11.75;5.95;;;9.70;34.90;;;;;;4894805;29;20020;-93
2021/06/02 03:30:34;;;;;;;11.43;5.88;;;9.60;34.80;;;;;;4895651;29;20033;-92
2021/06/02 03:33:21;;;;;;;11.18;5.65;;;9.60;35.00;;;;;;4900563;29;20029;-94
2021/06/02 03:36:12;;;;;;;10.73;5.78;;;9.50;35.00;;;;;;4892133;29;20044;-92
2021/06/02 03:38:58;;;;;;;10.27;5.80;;;9.50;34.90;;;;;;4887762;29;20493;-92
2021/06/02 03:41:50;;;;;;;11.75;5.50;;;9.50;35.20;;;;;;4894668;29;20035;-92
2021/06/02 03:44:37;;;;;;;11.27;5.80;;;9.50;35.40;;;;;;4891694;29;20040;-92
2021/06/02 03:47:28;;;;;;;10.93;6.00;;;9.50;35.40;;;;;;4883265;29;20048;-92
2021/06/02 03:50:06;;;;;;;11.88;5.65;;;9.50;35.50;;;;;;4899221;29;20561;-91
2021/06/02 03:53:02;;;;;;;10.90;5.97;;;9.50;35.60;;;;;;4884068;29;20120;-95
2021/06/02 03:55:54;;;;;;;12.80;5.85;;;9.50;36.00;;;;;;4901385;29;20032;-95
2021/06/02 03:59:03;;;;;;;14.48;6.72;;;9.50;35.80;;;;;;4901016;29;20028;-94
2021/06/02 04:01:34;;;;;;;13.20;6.03;;;9.50;35.80;;;;;;4901427;29;20134;-95
2021/06/02 04:04:23;;;;;;;11.68;6.18;;;9.50;35.60;;;;;;4901141;29;20028;-95
2021/06/02 04:07:04;;;;;;;10.73;5.50;;;9.50;36.10;;;;;;4901417;29;20032;-96
2021/06/02 04:09:52;;;;;;;11.93;6.35;;;9.50;36.20;;;;;;4901341;29;20115;-94
2021/06/02 04:12:26;;;;;;;12.48;6.45;;;9.50;36.20;;;;;;4900956;29;20060;-95
2021/06/02 04:14:58;;;;;;;10.82;6.13;;;9.50;36.30;;;;;;4901156;29;20028;-94
2021/06/02 04:17:26;;;;;;;12.60;6.20;;;9.50;36.20;;;;;;4901093;29;20032;-93
2021/06/02 04:19:53;;;;;;;12.50;6.20;;;9.60;36.40;;;;;;4900983;29;20103;-94
2021/06/02 04:22:22;;;;;;;13.95;7.82;;;9.60;36.50;;;;;;4885847;29;20039;-94
2021/06/02 04:24:50;;;;;;;12.68;7.03;;;9.60;36.70;;;;;;4901050;29;20028;-94
2021/06/02 04:27:18;;;;;;;13.32;7.10;;;9.60;36.70;;;;;;4901026;29;20047;-95
2021/06/02 04:29:47;;;;;;;13.57;6.82;;;9.70;36.90;;;;;;4901286;29;20032;-94
2021/06/02 04:32:14;;;;;;;16.05;6.93;;;9.70;36.90;;;;;;4900944;29;20033;-94
2021/06/02 04:34:42;;;;;;;11.93;6.00;;;9.70;37.00;;;;;;4900757;29;20032;-93
2021/06/02 04:37:09;;;;;;;12.63;7.07;;;9.80;37.10;;;;;;4900607;29;20123;-93
2021/06/02 04:39:38;;;;;;;12.35;6.88;;;9.80;37.30;;;;;;4900626;29;20036;-92
2021/06/02 04:42:09;;;;;;;13.82;7.32;;;9.80;37.40;;;;;;4901030;29;20029;-93
2021/06/02 04:44:36;;;;;;;15.57;7.75;;;9.90;37.50;;;;;;4901045;29;20050;-93
2021/06/02 04:47:04;;;;;;;13.35;7.60;;;9.70;37.50;;;;;;4900824;29;20028;-94
2021/06/02 04:50:02;;;;;;;13.18;7.47;;;9.90;37.70;;;;;;4902599;29;20020;-96
2021/06/02 04:52:45;;;;;;;11.98;7.07;;;10.00;38.10;;;;;;4908625;29;20055;-95
2021/06/02 04:55:49;;;;;;;15.05;7.30;;;10.00;38.00;;;;;;4923539;29;20039;-95
2021/06/02 04:58:40;;;;;;;11.77;6.63;;;10.00;38.10;;;;;;4917844;29;20130;-94
2021/06/02 05:01:53;;;;;;;12.43;6.82;;;10.00;38.30;;;;;;4921004;29;20088;-93
2021/06/02 05:04:37;;;;;;;10.82;6.28;;;10.10;38.50;;;;;;4921256;29;20063;-94
2021/06/02 05:07:13;;;;;;;13.02;7.55;;;10.20;38.50;;;;;;4920409;29;20038;-95
2021/06/02 05:10:17;;;;;;;14.80;7.47;;;10.20;38.50;;;;;;4922046;29;20031;-94
2021/06/02 05:13:01;;;;;;;16.13;7.55;;;10.20;38.60;;;;;;4921526;29;20019;-94
2021/06/02 05:15:45;;;;;;;14.38;8.30;;;10.20;38.50;;;;;;4921805;29;20547;-93
2021/06/02 05:25:03;;;;;;;14.30;7.10;;;10.40;39.20;;;;;;4937316;29;20039;-81
2021/06/02 05:27:56;;;;;;;14.98;7.93;;;10.50;39.30;;;;;;4936054;29;20031;-82
2021/06/02 05:30:49;;;;;;;12.25;7.45;;;10.60;39.50;;;;;;4937527;29;20028;-81
2021/06/02 05:33:42;;;;;;;11.57;6.25;;;10.70;39.70;;;;;;4937622;29;20480;-81
2021/06/02 05:36:35;;;;;;;11.82;6.75;;;10.90;39.90;;;;;;4937314;29;20038;-82
2021/06/02 05:39:30;;;;;;;13.02;6.97;;;11.00;39.80;;;;;;4937834;29;20027;-94
2021/06/02 05:42:17;;;;;;;19.85;8.57;;;11.10;39.90;;;;;;4921321;29;20019;-87
2021/06/02 05:45:20;;;;;;;11.02;7.50;;;11.10;39.90;;;;;;4920416;29;20028;-87
2021/06/02 05:55:39;;;;;;;12.88;6.78;;;11.30;40.10;;;;;;4912092;29;20047;-91
2021/06/02 06:05:49;;;;;;;12.93;7.40;;;11.60;40.50;;;;;;4915981;29;20039;-90
2021/06/02 06:09:12;;;;;;;;;;;;;;;;;;;;;
2021/06/02 06:29:03;;;;;;;12.40;5.95;;;12.60;41.60;;;;;;5229173;23;20056;-90
2021/06/02 06:31:34;;;;;;;;;;;12.80;41.90;;;;;;4900560;29;20127;-89
2021/06/02 06:34:07;;;;;;;10.48;6.13;;;12.80;41.20;;;;;;4919254;29;20009;-90
2021/06/02 06:56:10;;;;;;;;;;;;;;;;;;;;;
2021/06/02 06:58:56;;;;;;;9.35;4.53;;;13.90;42.30;;;;;;4935486;29;20042;-88
2021/06/02 07:15:34;;;;;;;8.30;3.90;;;14.70;43.10;;;;;;5062939;23;20071;-88
2021/06/02 07:18:57;;;;;;;;;;;;;;;;;;;;;
2021/06/02 07:22:23;;;;;;;9.63;3.83;;;15.20;43.60;;;;;;4912468;29;20039;-88
2021/06/02 07:25:30;;;;;;;7.53;3.53;;;15.50;43.50;;;;;;4860333;29;20167;-90
2021/06/02 08:40:41;;;;;;;3.28;2.22;;;20.10;43.30;;;;;;4998264;23;20547;-88
2021/06/02 08:47:03;;;;;;;6.38;2.25;;;20.30;43.00;;;;;;4940496;28;20182;-90
2021/06/02 08:49:28;;;;;;;4.65;2.30;;;20.40;43.00;;;;;;4937198;29;20032;-91
2021/06/02 08:55:18;;;;;;;4.80;2.40;;;20.80;43.40;;;;;;4996487;23;20094;-83
2021/06/02 08:57:47;;;;;;;4.30;2.08;;;21.00;43.20;;;;;;4940247;28;20032;-84
2021/06/02 09:00:18;;;;;;;6.05;2.10;;;21.10;43.00;;;;;;4941069;28;20047;-85
2021/06/02 09:02:55;;;;;;;6.18;2.50;;;21.20;42.90;;;;;;4944259;28;20102;-84
2021/06/02 09:05:22;;;;;;;3.72;2.20;;;21.30;42.60;;;;;;4940267;28;20503;-86
2021/06/02 09:07:52;;;;;;;5.20;2.47;;;21.40;42.90;;;;;;4940053;28;20063;-88
2021/06/02 09:10:20;;;;;;;6.00;2.38;;;21.60;42.80;;;;;;4939821;28;20028;-86
2021/06/02 09:12:50;;;;;;;4.35;2.10;;;21.70;42.60;;;;;;4908663;28;20078;-85
2021/06/02 09:15:20;;;;;;;4.05;2.10;;;21.80;42.50;;;;;;4939659;28;20031;-85
2021/06/02 09:18:00;;;;;;;4.65;2.00;;;21.90;42.50;;;;;;4939153;28;20043;-84
2021/06/02 09:20:44;;;;;;;4.95;2.28;;;22.00;42.40;;;;;;4936459;28;20443;-85
2021/06/02 09:23:28;;;;;;;8.15;2.30;;;22.10;41.90;;;;;;4940018;28;20102;-84
2021/06/02 09:26:20;;;;;;;4.50;2.20;;;22.20;42.10;;;;;;4943899;28;20023;-84
2021/06/02 09:28:48;;;;;;;3.47;1.95;;;22.30;41.90;;;;;;4944941;28;20464;-84
2021/06/02 09:31:25;;;;;;;3.08;2.00;;;22.40;41.90;;;;;;4940015;28;20031;-84
2021/06/02 09:33:51;;;;;;;7.70;2.20;;;22.60;41.90;;;;;;4935856;29;20023;-87
2021/06/02 09:36:17;;;;;;;3.65;2.00;;;22.70;41.70;;;;;;4936818;28;20050;-87
2021/06/02 09:38:51;;;;;;;4.47;2.10;;;22.80;41.70;;;;;;4936553;29;20028;-85
2021/06/02 09:41:20;;;;;;;6.07;1.90;;;23.10;41.60;;;;;;4936827;29;20032;-86
2021/06/02 09:43:45;;;;;;;3.65;2.05;;;23.20;41.50;;;;;;4936163;28;20126;-84
2021/06/02 09:46:14;;;;;;;5.05;1.77;;;23.40;41.60;;;;;;4936120;29;20429;-84
2021/06/02 09:48:47;;;;;;;4.65;2.20;;;23.60;41.60;;;;;;4936077;28;20126;-85
2021/06/02 09:51:35;;;;;;;3.45;1.90;;;23.80;42.30;;;;;;4939198;28;20023;-85
2021/06/02 09:54:03;;;;;;;4.43;2.10;;;24.20;41.90;;;;;;4936121;28;20024;-85
2021/06/02 09:56:33;;;;;;;3.00;1.90;;;24.50;41.90;;;;;;4938954;28;20039;-85
2021/06/02 09:58:59;;;;;;;7.15;2.05;;;24.90;42.10;;;;;;4945272;28;20031;-84
2021/06/02 10:01:24;;;;;;;11.32;2.72;;;25.40;42.00;;;;;;4936058;29;20027;-85
2021/06/02 10:03:51;;;;;;;4.93;2.22;;;25.70;41.90;;;;;;4936064;28;20032;-84
2021/06/02 10:06:16;;;;;;;2.75;1.80;;;26.10;41.10;;;;;;4938839;28;20023;-85
2021/06/02 10:08:52;;;;;;;3.65;1.70;;;26.20;40.40;;;;;;4935087;29;20491;-85
2021/06/02 10:11:20;;;;;;;5.78;2.05;;;26.20;39.90;;;;;;4938925;28;20027;-85
2021/06/02 10:13:52;;;;;;;3.20;1.90;;;26.10;39.50;;;;;;4938597;28;20024;-83
2021/06/02 10:16:47;;;;;;;5.32;2.25;;;26.10;39.00;;;;;;4935607;29;20480;-83
2021/06/02 10:19:13;;;;;;;4.70;2.05;;;26.10;39.40;;;;;;4931868;28;20056;-84
2021/06/02 10:21:50;;;;;;;4.85;2.20;;;26.30;39.60;;;;;;4938951;28;20035;-83
2021/06/02 10:24:16;;;;;;;10.75;2.20;;;26.60;39.80;;;;;;4938599;28;20028;-83
2021/06/02 10:26:42;;;;;;;3.40;2.10;;;27.20;40.50;;;;;;4935567;28;20368;-83
2021/06/02 10:29:08;;;;;;;5.07;2.10;;;27.70;40.30;;;;;;4938605;28;20036;-83
2021/06/02 10:31:34;;;;;;;4.72;2.28;;;28.20;39.60;;;;;;4938676;28;20019;-83
2021/06/02 10:34:00;;;;;;;3.60;1.90;;;28.40;39.30;;;;;;4938344;28;20487;-83
2021/06/02 10:36:27;;;;;;;5.72;2.33;;;28.60;39.10;;;;;;4938246;28;20043;-83
2021/06/02 10:38:59;;;;;;;7.32;2.10;;;28.90;38.90;;;;;;4938546;28;20063;-83
2021/06/02 10:41:32;;;;;;;3.40;1.90;;;29.10;38.70;;;;;;4938011;28;20036;-83
2021/06/02 10:44:08;;;;;;;2.17;1.90;;;29.20;38.00;;;;;;4943777;28;20428;-83
2021/06/02 10:46:37;;;;;;;6.43;1.90;;;29.10;37.10;;;;;;4938423;28;20038;-83
2021/06/02 10:49:04;;;;;;;5.22;3.42;;;28.90;36.50;;;;;;4937846;28;20016;-83
2021/06/02 10:51:30;;;;;;;3.35;1.80;;;28.80;36.10;;;;;;4943791;28;20047;-83
2021/06/02 10:54:10;;;;;;;5.63;1.88;;;28.60;36.80;;;;;;4938479;28;20050;-84
2021/06/02 10:56:38;;;;;;;3.38;1.90;;;28.50;36.10;;;;;;4954833;28;20052;-83
2021/06/02 10:59:25;;;;;;;4.50;1.90;;;28.50;36.00;;;;;;4954955;28;20038;-83
2021/06/02 11:02:04;;;;;;;3.33;1.83;;;28.60;36.20;;;;;;4954776;28;20507;-83
2021/06/02 11:04:31;;;;;;;3.70;1.90;;;28.70;36.40;;;;;;4937544;28;20086;-83
2021/06/02 11:07:19;;;;;;;2.45;1.80;;;28.90;36.80;;;;;;4955353;28;20416;-83
2021/06/02 11:09:50;;;;;;;3.85;1.90;;;29.20;36.60;;;;;;4950835;28;20052;-83
2021/06/02 11:12:16;;;;;;;3.75;1.75;;;29.20;35.90;;;;;;4955259;28;20492;-83
2021/06/02 11:14:42;;;;;;;2.33;1.95;;;29.30;36.40;;;;;;4954767;28;20101;-83
2021/06/02 11:17:12;;;;;;;3.40;2.03;;;29.70;37.00;;;;;;4955224;28;20387;-83
2021/06/02 11:19:42;;;;;;;3.03;1.80;;;30.40;37.60;;;;;;4937412;28;20039;-83
2021/06/02 11:22:11;;;;;;;3.92;1.85;;;31.20;38.10;;;;;;4954616;28;20046;-83
2021/06/02 11:24:40;;;;;;;5.53;2.22;;;31.90;38.00;;;;;;4954949;28;20019;-83
2021/06/02 11:27:14;;;;;;;4.32;1.70;;;32.70;38.80;;;;;;4954595;28;20031;-83
2021/06/02 11:29:52;;;;;;;3.20;1.80;;;33.60;38.40;;;;;;4954830;28;20494;-83
2021/06/02 11:32:25;;;;;;;3.95;2.00;;;34.30;38.20;;;;;;4954863;28;20031;-83
2021/06/02 11:35:01;;;;;;;1.95;1.80;;;34.90;37.80;;;;;;4954162;28;20019;-84
2021/06/02 11:37:29;;;;;;;2.42;1.80;;;35.40;37.20;;;;;;4954795;28;20146;-83
2021/06/02 11:39:59;;;;;;;2.05;1.65;;;35.80;36.80;;;;;;4954439;28;20089;-84
2021/06/02 11:42:29;;;;;;;2.65;1.80;;;36.40;37.00;;;;;;4954256;28;20035;-84
2021/06/02 11:44:59;;;;;;;2.17;1.67;;;37.00;36.60;;;;;;4954300;28;20102;-84
2021/06/02 11:47:25;;;;;;;2.70;1.70;;;37.70;36.50;;;;;;4954681;28;20455;-84
2021/06/02 11:49:51;;;;;;;4.07;1.88;;;38.40;36.50;;;;;;4954089;28;20027;-84
2021/06/02 11:52:17;;;;;;;2.47;1.60;;;38.70;35.30;;;;;;4954816;28;20420;-84
2021/06/02 11:54:52;;;;;;;6.60;2.15;;;38.90;35.20;;;;;;4920757;28;20043;-84
2021/06/02 11:57:33;;;;;;;3.55;2.00;;;39.50;35.10;;;;;;4954473;28;20030;-84
2021/06/02 12:00:05;;;;;;;2.75;1.80;;;40.00;34.50;;;;;;4951503;28;20035;-84
2021/06/02 12:02:32;;;;;;;4.38;1.73;;;40.40;34.50;;;;;;4937133;28;20032;-84
2021/06/02 12:05:30;;;;;;;15.23;2.33;;;41.00;34.70;;;;;;4954238;28;20364;-84
2021/06/02 12:08:23;;;;;;;5.70;1.88;;;41.70;34.10;;;;;;4957796;28;20094;-82
2021/06/02 12:10:51;;;;;;;5.30;1.70;;;42.40;33.80;;;;;;4954468;28;20035;-82
2021/06/02 12:13:20;;;;;;;3.25;1.70;;;42.70;32.70;;;;;;4958004;28;20027;-82
2021/06/02 12:15:49;;;;;;;2.10;1.90;;;43.20;33.00;;;;;;4940632;28;20110;-82
2021/06/02 12:18:33;;;;;;;3.30;1.83;;;43.50;32.50;;;;;;4957849;28;20019;-82
2021/06/02 12:21:17;;;;;;;4.65;2.20;;;44.10;32.80;;;;;;4953828;28;20126;-82
2021/06/02 12:23:54;;;;;;;2.03;1.80;;;44.60;32.40;;;;;;4953016;28;20110;-82
2021/06/02 12:26:32;;;;;;;3.88;1.88;;;44.70;31.20;;;;;;4957201;28;20477;-82
2021/06/02 12:29:04;;;;;;;3.28;1.70;;;45.30;32.00;;;;;;4957828;28;20027;-82
2021/06/02 12:31:30;;;;;;;;;;;45.50;30.60;;;;;;4940609;28;20034;-82
2021/06/02 12:34:10;;;;;;;2.53;1.90;;;45.60;32.10;;;;;;4957725;28;19906;-82
2021/06/02 12:36:41;;;;;;;2.55;1.90;;;45.60;30.70;;;;;;4957467;28;20034;-82
2021/06/02 12:39:12;;;;;;;2.55;2.00;;;45.60;30.30;;;;;;4940388;28;20035;-82
2021/06/02 12:41:40;;;;;;;2.85;1.83;;;46.00;30.00;;;;;;4957436;28;20011;-82
2021/06/02 12:44:07;;;;;;;3.80;1.90;;;46.30;29.90;;;;;;4940471;28;20118;-82
2021/06/02 12:46:33;;;;;;;3.20;2.10;;;46.20;29.50;;;;;;4957661;28;20057;-83
2021/06/02 12:48:59;;;;;;;6.63;2.20;;;46.60;29.70;;;;;;4957228;28;20106;-83
2021/06/02 12:51:26;;;;;;;2.90;2.05;;;47.40;29.80;;;;;;4957364;28;20023;-83
2021/06/02 12:53:52;;;;;;;5.70;2.30;;;47.90;28.90;;;;;;4957120;28;20112;-83
2021/06/02 12:56:20;;;;;;;2.35;2.15;;;48.00;28.60;;;;;;4957091;28;20495;-83
2021/06/02 12:58:57;;;;;;;5.18;2.38;;;48.60;28.40;;;;;;4957375;28;20035;-83
2021/06/02 13:01:33;;;;;;;4.50;2.50;;;49.00;28.30;;;;;;4956825;28;20467;-83
2021/06/02 13:04:01;;;;;;;5.30;2.40;;;49.40;27.60;;;;;;4957008;28;20034;-83
2021/06/02 13:06:32;;;;;;;4.15;2.50;;;50.10;27.20;;;;;;4957531;28;20023;-83
2021/06/02 13:09:06;;;;;;;4.25;2.50;;;50.40;26.30;;;;;;4957057;28;20035;-83
2021/06/02 13:11:33;;;;;;;3.33;2.65;;;50.80;26.50;;;;;;4939479;28;20391;-83
2021/06/02 13:14:02;;;;;;;3.50;2.80;;;51.40;26.20;;;;;;4957429;28;20031;-83
2021/06/02 13:16:28;;;;;;;7.85;2.90;;;51.60;25.90;;;;;;4956857;28;20019;-83
2021/06/02 13:18:55;;;;;;;4.88;2.88;;;51.70;25.50;;;;;;4956058;28;20487;-83
2021/06/02 13:21:27;;;;;;;3.75;2.90;;;52.00;25.40;;;;;;4957111;28;20121;-83
2021/06/02 13:23:53;;;;;;;4.82;3.00;;;52.10;25.10;;;;;;4939591;28;20475;-83
2021/06/02 13:26:19;;;;;;;3.72;3.10;;;52.60;25.30;;;;;;4939557;29;20035;-83
2021/06/02 13:29:03;;;;;;;5.78;3.50;;;53.00;25.00;;;;;;4956774;28;20482;-87
2021/06/02 13:31:40;;;;;;;4.82;3.30;;;53.10;24.10;;;;;;4939303;28;20495;-85
2021/06/02 13:34:13;;;;;;;8.05;3.50;;;53.40;24.00;;;;;;4938813;28;20084;-87
2021/06/02 13:36:43;;;;;;;4.45;3.38;;;53.50;23.80;;;;;;4956726;28;20023;-86
2021/06/02 13:39:14;;;;;;;4.10;3.47;;;53.30;23.20;;;;;;4956844;28;20023;-87
2021/06/02 13:41:42;;;;;;;5.20;3.85;;;53.30;23.10;;;;;;4939231;28;20479;-87
2021/06/02 13:44:11;;;;;;;7.15;4.00;;;53.50;23.20;;;;;;4939131;29;20027;-88
2021/06/02 13:46:45;;;;;;;4.78;3.90;;;53.80;23.00;;;;;;4956258;28;20051;-87
2021/06/02 13:49:10;;;;;;;18.77;5.88;;;54.50;23.20;;;;;;4939192;28;20412;-90
2021/06/02 13:51:46;;;;;;;54.53;9.48;;;54.80;22.50;;;;;;4956470;28;20034;-87
2021/06/02 13:54:29;;;;;;;6.72;4.50;;;55.00;22.50;;;;;;4956537;28;20030;-89
2021/06/02 13:57:13;;;;;;;6.78;4.50;;;55.30;22.30;;;;;;4956212;28;20047;-88
2021/06/02 13:59:44;;;;;;;5.93;4.57;;;55.70;22.20;;;;;;4953310;28;20022;-88
2021/06/02 14:02:19;;;;;;;;;;;56.20;21.90;;;;;;4956595;28;20016;-89
2021/06/02 14:04:48;;;;;;;6.78;4.80;;;56.70;21.50;;;;;;4955972;28;19906;-88
2021/06/02 14:07:16;;;;;;;5.93;4.83;;;56.60;20.80;;;;;;4956166;28;20031;-88
2021/06/02 14:09:43;;;;;;;6.57;5.00;;;56.50;20.90;;;;;;4938665;28;20046;-87
2021/06/02 14:12:10;;;;;;;185.15;26.60;;;56.70;20.70;;;;;;4957053;28;20019;-88
2021/06/02 14:14:37;;;;;;;18.17;6.60;;;56.70;20.70;;;;;;4938952;28;20046;-88
2021/06/02 14:17:03;;;;;;;14.55;5.78;;;56.90;20.70;;;;;;4938610;28;20059;-88
2021/06/02 14:19:29;;;;;;;48.15;11.63;;;57.20;20.70;;;;;;4955844;28;20026;-87
2021/06/02 14:21:55;;;;;;;7.82;5.30;;;57.30;20.10;;;;;;4955544;28;21200;-87
2021/06/02 14:24:22;;;;;;;7.72;5.47;;;57.20;20.00;;;;;;4955764;28;20407;-86
2021/06/02 14:26:49;;;;;;;7.47;4.97;;;56.90;19.70;;;;;;4955855;28;20023;-86
2021/06/02 14:29:15;;;;;;;7.10;5.28;;;56.80;19.80;;;;;;4955322;28;20043;-87
2021/06/02 14:31:43;;;;;;;7.65;6.38;;;57.40;20.00;;;;;;4955711;28;20019;-88
2021/06/02 14:34:10;;;;;;;32.13;8.95;;;57.80;19.80;;;;;;4955569;28;20027;-89
2021/06/02 14:36:37;;;;;;;8.38;5.90;;;58.00;19.50;;;;;;4955296;28;20480;-88
2021/06/02 14:39:07;;;;;;;8.55;6.15;;;58.10;19.40;;;;;;4955895;28;20027;-88
2021/06/02 14:41:34;;;;;;;7.82;5.80;;;58.00;19.10;;;;;;4955457;28;20016;-89
2021/06/02 14:44:00;;;;;;;7.30;5.80;;;58.00;19.00;;;;;;4955272;28;20086;-88
2021/06/02 14:46:26;;;;;;;7.30;5.97;;;57.90;18.90;;;;;;4938061;28;20070;-88
2021/06/02 14:48:52;;;;;;;7.43;5.93;;;57.50;18.60;;;;;;4955229;28;20039;-89
2021/06/02 14:51:20;;;;;;;8.43;5.63;;;57.70;18.80;;;;;;4955109;28;20081;-88
2021/06/02 14:53:46;;;;;;;7.53;5.45;;;57.60;18.70;;;;;;4955242;28;20026;-87
2021/06/02 14:56:16;;;;;;;6.80;5.50;;;57.90;18.70;;;;;;4954677;28;20043;-88
2021/06/02 14:58:44;;;;;;;8.10;5.55;;;58.20;18.80;;;;;;4954898;28;20437;-88
2021/06/02 15:01:10;;;;;;;6.97;5.68;;;58.50;18.70;;;;;;4955042;28;20403;-89
2021/06/02 15:03:38;;;;;;;6.40;5.20;;;58.60;18.50;;;;;;4955856;28;20038;-85
2021/06/02 15:06:04;;;;;;;9.00;5.40;;;58.60;18.80;;;;;;4954245;28;20110;-85
2021/06/02 15:08:30;;;;;;;8.38;4.95;;;58.20;18.00;;;;;;4937489;28;20106;-84
2021/06/02 15:10:56;;;;;;;6.30;4.40;;;57.80;18.10;;;;;;4937288;28;20127;-83
2021/06/02 15:13:23;;;;;;;4.65;3.80;;;57.60;18.20;;;;;;4954969;28;20122;-82
2021/06/02 15:15:50;;;;;;;5.43;3.30;;;57.80;18.00;;;;;;4954823;28;20025;-82
2021/06/02 15:18:17;;;;;;;4.50;3.13;;;57.70;17.90;;;;;;4954699;28;20023;-83
2021/06/02 15:20:44;;;;;;;11.15;3.22;;;57.60;17.90;;;;;;4954762;28;20023;-83
2021/06/02 15:23:11;;;;;;;3.90;3.00;;;57.30;17.70;;;;;;4954666;28;20019;-83
2021/06/02 15:25:36;;;;;;;6.20;2.90;;;57.20;17.70;;;;;;4954355;28;20023;-83
2021/06/02 15:28:03;;;;;;;4.50;3.10;;;57.10;17.70;;;;;;4937080;28;20033;-83
2021/06/02 15:30:32;;;;;;;4.60;3.50;;;57.00;17.60;;;;;;4954529;28;20031;-83
2021/06/02 15:33:00;;;;;;;7.32;3.33;;;56.60;17.50;;;;;;4954503;28;20021;-83
2021/06/02 15:35:27;;;;;;;5.55;3.20;;;56.30;17.50;;;;;;4954561;28;20490;-83
2021/06/02 15:37:54;;;;;;;3.53;3.10;;;56.00;17.50;;;;;;4954061;28;20027;-83
2021/06/02 15:40:22;;;;;;;3.92;3.00;;;56.10;17.70;;;;;;4954601;28;20046;-83
2021/06/02 15:42:48;;;;;;;4.15;3.40;;;56.60;17.90;;;;;;4953661;28;20019;-83
2021/06/02 15:45:16;;;;;;;4.90;3.30;;;57.00;17.90;;;;;;4954685;28;20380;-83
2021/06/02 15:47:42;;;;;;;4.25;3.47;;;57.40;17.80;;;;;;4937377;28;20031;-83
2021/06/02 15:50:09;;;;;;;4.10;3.20;;;57.60;17.50;;;;;;4954560;28;20101;-82
2021/06/02 15:52:39;;;;;;;5.65;3.50;;;57.00;17.00;;;;;;4954231;28;20023;-83
2021/06/02 15:55:09;;;;;;;4.25;3.20;;;56.90;17.50;;;;;;4954046;28;20373;-82
2021/06/02 15:57:36;;;;;;;5.10;2.90;;;57.20;17.70;;;;;;4953967;28;20372;-83
2021/06/02 16:00:10;;;;;;;3.38;2.70;;;57.30;17.20;;;;;;4954165;28;20030;-82
2021/06/02 16:02:36;;;;;;;3.92;2.58;;;57.20;17.20;;;;;;4953960;28;20032;-84
2021/06/02 16:05:04;;;;;;;4.05;2.50;;;57.00;17.20;;;;;;4954124;28;20051;-84